createdAt,value
2023-11-22T00:01:13.557Z,3.30
2023-11-22T00:03:41.856Z,3.20
2023-11-22T00:06:10.017Z,3.30
2023-11-22T00:08:38.363Z,3.20
2023-11-22T00:11:08.080Z,3.20
2023-11-22T00:13:36.339Z,3.20
2023-11-22T00:16:04.868Z,3.00
2023-11-22T00:18:33.174Z,3.00
2023-11-22T00:21:01.343Z,3.00
2023-11-22T00:23:31.248Z,2.90
2023-11-22T00:26:00.011Z,2.90
2023-11-22T00:28:29.597Z,2.90
2023-11-22T00:30:57.800Z,2.90
2023-11-22T00:33:26.550Z,2.90
2023-11-22T00:35:58.091Z,2.90
2023-11-22T00:38:26.646Z,2.90
2023-11-22T00:40:54.972Z,2.90
2023-11-22T00:43:23.136Z,3.00
2023-11-22T00:45:52.734Z,3.00
2023-11-22T00:48:20.954Z,3.00
2023-11-22T00:50:49.126Z,3.00
2023-11-22T00:53:18.276Z,3.00
2023-11-22T00:55:46.501Z,3.00
2023-11-22T00:58:14.735Z,2.90
2023-11-22T01:00:42.898Z,2.90
2023-11-22T01:03:13.484Z,2.90
2023-11-22T01:05:43.723Z,2.90
2023-11-22T01:08:11.995Z,2.90
2023-11-22T01:10:40.181Z,2.90
2023-11-22T01:13:08.510Z,2.80
2023-11-22T01:15:36.707Z,2.70
2023-11-22T01:18:05.356Z,2.80
2023-11-22T01:20:35.061Z,2.70
2023-11-22T01:23:03.345Z,2.70
2023-11-22T01:25:31.599Z,2.70
2023-11-22T01:27:59.852Z,2.70
2023-11-22T01:30:29.744Z,2.70
2023-11-22T01:32:58.349Z,2.70
2023-11-22T01:35:26.839Z,2.60
2023-11-22T01:37:57.534Z,2.60
2023-11-22T01:40:27.420Z,2.50
2023-11-22T01:42:56.350Z,2.50
2023-11-22T01:45:24.647Z,2.50
2023-11-22T01:47:53.874Z,2.50
2023-11-22T01:50:22.397Z,2.40
2023-11-22T01:52:51.191Z,2.40
2023-11-22T01:55:20.977Z,2.40
2023-11-22T01:57:49.229Z,2.40
2023-11-22T02:00:18.028Z,2.50
2023-11-22T02:02:46.568Z,2.40
2023-11-22T02:05:15.368Z,2.40
2023-11-22T02:07:43.860Z,2.40
2023-11-22T02:10:12.084Z,2.30
2023-11-22T02:12:41.628Z,2.40
2023-11-22T02:15:10.635Z,2.40
2023-11-22T02:17:39.199Z,2.30
2023-11-22T02:20:10.964Z,2.30
2023-11-22T02:22:46.132Z,2.40
2023-11-22T02:25:17.198Z,2.30
2023-11-22T02:27:45.469Z,2.30
2023-11-22T02:30:14.075Z,2.30
2023-11-22T02:32:42.266Z,2.20
2023-11-22T02:35:10.812Z,2.20
2023-11-22T02:37:39.147Z,2.20
2023-11-22T02:40:12.216Z,2.20
2023-11-22T02:42:41.845Z,2.20
2023-11-22T02:45:11.088Z,2.20
2023-11-22T02:47:39.419Z,2.20
2023-11-22T02:50:08.568Z,2.20
2023-11-22T02:52:37.031Z,2.20
2023-11-22T02:55:05.970Z,2.20
2023-11-22T02:57:34.202Z,2.20
2023-11-22T03:00:05.415Z,2.20
2023-11-22T03:02:34.380Z,2.10
2023-11-22T03:05:02.944Z,2.00
2023-11-22T03:07:31.806Z,2.10
2023-11-22T03:10:02.113Z,2.00
2023-11-22T03:12:30.382Z,2.10
2023-11-22T03:15:01.525Z,2.10
2023-11-22T03:17:31.638Z,2.00
2023-11-22T03:20:00.383Z,2.00
2023-11-22T03:22:31.164Z,2.00
2023-11-22T03:25:01.186Z,2.00
2023-11-22T03:27:29.435Z,2.00
2023-11-22T03:29:57.842Z,1.90
2023-11-22T03:32:26.163Z,1.90
2023-11-22T03:34:55.863Z,1.90
2023-11-22T03:37:24.102Z,1.80
2023-11-22T03:39:52.412Z,1.90
2023-11-22T03:42:20.673Z,1.90
2023-11-22T03:44:48.844Z,1.90
2023-11-22T03:47:17.933Z,1.90
2023-11-22T03:49:46.207Z,1.90
2023-11-22T03:52:16.191Z,1.80
2023-11-22T03:54:44.402Z,1.80
2023-11-22T03:57:12.646Z,1.90
2023-11-22T03:59:44.251Z,1.90
2023-11-22T04:02:12.535Z,1.90
2023-11-22T04:04:42.316Z,1.80
2023-11-22T04:07:10.721Z,1.80
2023-11-22T04:09:40.396Z,1.80
2023-11-22T04:12:09.221Z,1.80
2023-11-22T04:14:37.685Z,1.80
2023-11-22T04:17:07.769Z,1.70
2023-11-22T04:19:36.422Z,1.60
2023-11-22T04:22:04.970Z,1.70
2023-11-22T04:24:33.245Z,1.70
2023-11-22T04:27:02.903Z,1.80
2023-11-22T04:29:31.226Z,1.80
2023-11-22T04:31:59.401Z,1.70
2023-11-22T04:34:27.690Z,1.70
2023-11-22T04:36:55.881Z,1.80
2023-11-22T04:39:23.111Z,1.80
2023-11-22T04:41:52.118Z,1.80
2023-11-22T04:44:21.794Z,1.80
2023-11-22T04:46:50.026Z,1.70
2023-11-22T04:49:18.178Z,1.70
2023-11-22T04:51:46.874Z,1.70
2023-11-22T04:54:15.110Z,1.60
2023-11-22T04:56:43.335Z,1.60
2023-11-22T04:59:11.815Z,1.70
2023-11-22T05:01:41.539Z,1.70
2023-11-22T05:04:11.456Z,1.70
2023-11-22T05:06:39.678Z,1.70
2023-11-22T05:09:08.020Z,1.70
2023-11-22T05:11:36.360Z,1.70
2023-11-22T05:14:04.663Z,1.70
2023-11-22T05:16:32.844Z,1.70
2023-11-22T05:19:02.539Z,1.70
2023-11-22T05:21:30.686Z,1.70
2023-11-22T05:23:58.971Z,1.70
2023-11-22T05:26:28.071Z,1.60
2023-11-22T05:28:56.338Z,1.60
2023-11-22T05:31:25.259Z,1.60
2023-11-22T05:33:53.459Z,1.60
2023-11-22T05:36:23.151Z,1.60
2023-11-22T05:38:51.580Z,1.60
2023-11-22T05:41:19.938Z,1.60
2023-11-22T05:43:48.226Z,1.50
2023-11-22T05:46:22.483Z,1.50
2023-11-22T05:48:51.860Z,1.60
2023-11-22T05:51:20.353Z,1.60
2023-11-22T05:53:50.126Z,1.50
2023-11-22T05:56:18.440Z,1.50
2023-11-22T05:58:46.818Z,1.60
2023-11-22T06:01:15.168Z,1.50
2023-11-22T06:03:43.479Z,1.50
2023-11-22T06:06:11.867Z,1.50
2023-11-22T06:08:40.137Z,1.60
2023-11-22T06:11:09.821Z,1.50
2023-11-22T06:13:37.982Z,1.50
2023-11-22T06:16:09.158Z,1.50
2023-11-22T06:18:41.396Z,1.50
2023-11-22T06:21:09.919Z,1.50
2023-11-22T06:23:38.382Z,1.50
2023-11-22T06:26:07.455Z,1.50
2023-11-22T06:28:37.471Z,1.40
2023-11-22T06:31:05.654Z,1.40
2023-11-22T06:33:33.945Z,1.40
2023-11-22T06:36:02.203Z,1.40
2023-11-22T06:38:29.568Z,1.40
2023-11-22T06:40:57.877Z,1.40
2023-11-22T06:43:26.156Z,1.30
2023-11-22T06:45:55.680Z,1.30
2023-11-22T06:48:24.034Z,1.30
2023-11-22T06:50:52.792Z,1.30
2023-11-22T06:53:21.790Z,1.30
2023-11-22T06:55:50.041Z,1.30
2023-11-22T06:58:19.037Z,1.30
2023-11-22T07:00:47.271Z,1.30
2023-11-22T07:03:17.629Z,1.30
2023-11-22T07:05:46.301Z,1.30
2023-11-22T07:08:17.786Z,1.30
2023-11-22T07:10:46.447Z,1.30
2023-11-22T07:13:16.408Z,1.30
2023-11-22T07:15:44.647Z,1.30
2023-11-22T07:18:15.200Z,1.30
2023-11-22T07:20:45.020Z,1.30
2023-11-22T07:23:14.650Z,1.30
2023-11-22T07:25:44.748Z,1.30
2023-11-22T07:28:12.900Z,1.30
2023-11-22T07:30:43.008Z,1.30
2023-11-22T07:33:12.061Z,1.30
2023-11-22T07:35:40.510Z,1.30
2023-11-22T07:38:11.967Z,1.20
2023-11-22T07:40:40.605Z,1.20
2023-11-22T07:43:08.798Z,1.20
2023-11-22T07:45:38.304Z,1.30
2023-11-22T07:48:06.947Z,1.30
2023-11-22T07:50:35.207Z,1.30
2023-11-22T07:53:03.957Z,1.20
2023-11-22T07:55:34.700Z,1.20
2023-11-22T07:58:06.102Z,1.20
2023-11-22T08:00:35.012Z,1.20
2023-11-22T08:03:03.988Z,1.20
2023-11-22T08:05:35.750Z,1.20
2023-11-22T08:08:07.763Z,1.20
2023-11-22T08:10:37.505Z,1.30
2023-11-22T08:13:05.845Z,1.30
2023-11-22T08:15:34.213Z,1.30
2023-11-22T08:18:02.651Z,1.30
2023-11-22T08:20:32.113Z,1.20
2023-11-22T08:23:01.709Z,1.30
2023-11-22T08:25:30.554Z,1.30
2023-11-22T08:28:01.959Z,1.30
2023-11-22T08:30:33.985Z,1.30
2023-11-22T08:33:02.364Z,1.30
2023-11-22T08:35:30.753Z,1.30
2023-11-22T08:37:59.770Z,1.30
2023-11-22T08:40:27.970Z,1.30
2023-11-22T08:42:56.226Z,1.30
2023-11-22T08:45:25.742Z,1.30
2023-11-22T08:47:54.024Z,1.30
2023-11-22T08:50:22.402Z,1.30
2023-11-22T08:52:53.804Z,1.30
2023-11-22T08:55:23.125Z,1.30
2023-11-22T08:57:52.346Z,1.30
2023-11-22T09:00:23.504Z,1.30
2023-11-22T09:02:53.299Z,1.30
2023-11-22T09:05:22.729Z,1.30
2023-11-22T09:07:52.223Z,1.30
2023-11-22T09:10:22.976Z,1.20
2023-11-22T09:12:52.593Z,1.30
2023-11-22T09:15:27.544Z,1.30
2023-11-22T09:17:58.312Z,1.30
2023-11-22T09:20:26.763Z,1.30
2023-11-22T09:22:56.481Z,1.30
2023-11-22T09:25:26.215Z,1.30
2023-11-22T09:27:56.767Z,1.30
2023-11-22T09:30:36.043Z,1.30
2023-11-22T09:33:07.108Z,1.30
2023-11-22T09:35:36.346Z,1.30
2023-11-22T09:38:05.970Z,1.30
2023-11-22T09:40:34.301Z,1.40
2023-11-22T09:43:03.622Z,1.40
2023-11-22T09:45:33.995Z,1.40
2023-11-22T09:48:03.539Z,1.40
2023-11-22T09:50:41.869Z,1.50
2023-11-22T09:53:16.650Z,1.50
2023-11-22T09:55:47.901Z,1.40
2023-11-22T09:58:18.356Z,1.50
2023-11-22T10:00:46.709Z,1.50
2023-11-22T10:03:16.097Z,1.50
2023-11-22T10:05:46.227Z,1.50
2023-11-22T10:08:15.479Z,1.60
2023-11-22T10:10:46.705Z,1.60
2023-11-22T10:13:15.907Z,1.60
2023-11-22T10:15:44.157Z,1.60
2023-11-22T10:18:13.290Z,1.50
2023-11-22T10:20:47.614Z,1.50
2023-11-22T10:23:18.817Z,1.60
2023-11-22T10:25:48.772Z,1.60
2023-11-22T10:28:17.434Z,1.60
2023-11-22T10:30:46.173Z,1.60
2023-11-22T10:33:15.860Z,1.60
2023-11-22T10:35:46.661Z,1.60
2023-11-22T10:38:16.559Z,1.60
2023-11-22T10:40:46.137Z,1.60
2023-11-22T10:43:14.844Z,1.70
2023-11-22T10:45:47.339Z,1.60
2023-11-22T10:48:18.130Z,1.60
2023-11-22T10:50:48.061Z,1.60
2023-11-22T10:53:23.633Z,1.60
2023-11-22T10:55:59.679Z,1.60
2023-11-22T10:58:30.195Z,1.60
2023-11-22T11:00:59.413Z,1.60
2023-11-22T11:03:32.932Z,1.60
2023-11-22T11:06:06.339Z,1.60
2023-11-22T11:08:35.230Z,1.60
2023-11-22T11:11:04.704Z,1.60
2023-11-22T11:13:33.630Z,1.60
2023-11-22T11:16:02.321Z,1.60
2023-11-22T11:18:31.242Z,1.60
2023-11-22T11:21:00.425Z,1.60
2023-11-22T11:23:32.750Z,1.60
2023-11-22T11:26:12.588Z,1.60
2023-11-22T11:28:45.415Z,1.60
2023-11-22T11:31:13.660Z,1.60
2023-11-22T11:33:56.940Z,1.60
2023-11-22T11:36:27.205Z,1.50
2023-11-22T11:38:57.959Z,1.60
2023-11-22T11:41:29.178Z,1.60
2023-11-22T11:43:59.283Z,1.60
2023-11-22T11:46:31.930Z,1.60
2023-11-22T11:49:00.725Z,1.60
2023-11-22T11:51:30.428Z,1.60
2023-11-22T11:54:00.079Z,1.60
2023-11-22T11:56:31.120Z,1.60
2023-11-22T11:59:00.875Z,1.60
2023-11-22T12:01:33.707Z,1.70
2023-11-22T12:04:03.929Z,1.70
2023-11-22T12:06:34.686Z,1.70
2023-11-22T12:09:05.110Z,1.70
2023-11-22T12:11:33.503Z,1.70
2023-11-22T12:14:04.733Z,1.70
2023-11-22T12:16:35.213Z,1.70
2023-11-22T12:19:04.027Z,1.70
2023-11-22T12:21:34.340Z,1.80
2023-11-22T12:24:07.321Z,1.80
2023-11-22T12:26:35.620Z,1.80
2023-11-22T12:29:06.533Z,1.70
2023-11-22T12:31:37.450Z,1.70
2023-11-22T12:34:07.646Z,1.70
2023-11-22T12:36:37.291Z,1.60
2023-11-22T12:39:16.803Z,1.70
2023-11-22T12:41:53.121Z,1.70
2023-11-22T12:44:24.662Z,1.70
2023-11-22T12:46:58.893Z,1.60
2023-11-22T12:49:28.444Z,1.70
2023-11-22T12:51:58.105Z,1.60
2023-11-22T12:54:27.925Z,1.70
2023-11-22T12:57:00.306Z,1.60
2023-11-22T12:59:32.224Z,1.70
2023-11-22T13:02:02.312Z,1.60
2023-11-22T13:04:32.461Z,1.60
2023-11-22T13:07:01.783Z,1.60
2023-11-22T13:09:33.534Z,1.60
2023-11-22T13:12:02.124Z,1.60
2023-11-22T13:14:33.521Z,1.70
2023-11-22T13:17:01.834Z,1.70
2023-11-22T13:19:30.453Z,1.70
2023-11-22T13:21:58.653Z,1.70
2023-11-22T13:24:26.916Z,1.70
2023-11-22T13:26:56.578Z,1.70
2023-11-22T13:29:26.590Z,1.70
2023-11-22T13:31:54.790Z,1.70
2023-11-22T13:34:23.036Z,1.70
2023-11-22T13:36:51.257Z,1.70
2023-11-22T13:39:23.325Z,1.70
2023-11-22T13:41:51.856Z,1.70
2023-11-22T13:44:22.029Z,1.70
2023-11-22T13:46:55.704Z,1.70
2023-11-22T13:49:26.950Z,1.70
2023-11-22T13:51:55.216Z,1.60
2023-11-22T13:54:23.457Z,1.60
2023-11-22T13:56:51.747Z,1.60
2023-11-22T13:59:21.566Z,1.70
2023-11-22T14:01:54.786Z,1.70
2023-11-22T14:04:24.264Z,1.70
2023-11-22T14:06:52.476Z,1.70
2023-11-22T14:09:20.997Z,1.70
2023-11-22T14:11:50.308Z,1.80
2023-11-22T14:14:20.443Z,1.80
2023-11-22T14:16:50.318Z,1.70
2023-11-22T14:19:18.515Z,1.70
2023-11-22T14:21:46.916Z,1.70
2023-11-22T14:24:15.089Z,1.70
2023-11-22T14:26:43.314Z,1.70
2023-11-22T14:29:11.457Z,1.60
2023-11-22T14:31:39.827Z,1.70
2023-11-22T14:34:09.484Z,1.60
2023-11-22T14:36:38.239Z,1.60
2023-11-22T14:39:08.413Z,1.60
2023-11-22T14:41:36.746Z,1.60
2023-11-22T14:44:06.020Z,1.60
2023-11-22T14:46:34.229Z,1.70
2023-11-22T14:49:02.479Z,1.70
2023-11-22T14:51:32.230Z,1.70
2023-11-22T14:54:00.425Z,1.60
2023-11-22T14:56:28.807Z,1.60
2023-11-22T14:59:00.334Z,1.60
2023-11-22T15:01:28.579Z,1.60
2023-11-22T15:03:56.795Z,1.60
2023-11-22T15:06:25.447Z,1.50
2023-11-22T15:08:55.093Z,1.60
2023-11-22T15:11:23.218Z,1.60
2023-11-22T15:13:51.974Z,1.50
2023-11-22T15:16:20.247Z,1.50
2023-11-22T15:18:48.567Z,1.50
2023-11-22T15:21:16.708Z,1.40
2023-11-22T15:23:44.951Z,1.40
2023-11-22T15:26:15.198Z,1.40
2023-11-22T15:28:43.413Z,1.50
2023-11-22T15:31:11.672Z,1.40
2023-11-22T15:33:39.970Z,1.40
2023-11-22T15:36:09.480Z,1.40
2023-11-22T15:38:37.848Z,1.40
2023-11-22T15:41:12.539Z,1.50
2023-11-22T15:43:45.997Z,1.40
2023-11-22T15:46:16.049Z,1.40
2023-11-22T15:48:45.378Z,1.40
2023-11-22T15:51:13.958Z,1.40
2023-11-22T15:53:42.530Z,1.40
2023-11-22T15:56:16.250Z,1.40
2023-11-22T15:58:46.913Z,1.40
2023-11-22T16:01:15.592Z,1.40
2023-11-22T16:03:44.239Z,1.40
2023-11-22T16:06:14.390Z,1.40
2023-11-22T16:08:42.849Z,1.40
2023-11-22T16:11:12.577Z,1.40
2023-11-22T16:13:44.667Z,1.40
2023-11-22T16:16:14.285Z,1.40
2023-11-22T16:18:42.715Z,1.40
2023-11-22T16:21:12.335Z,1.40
2023-11-22T16:23:40.607Z,1.40
2023-11-22T16:26:07.849Z,1.40
2023-11-22T16:28:38.071Z,1.40
2023-11-22T16:31:08.311Z,1.40
2023-11-22T16:33:38.336Z,1.40
2023-11-22T16:36:07.088Z,1.40
2023-11-22T16:38:35.918Z,1.40
2023-11-22T16:41:06.518Z,1.40
2023-11-22T16:43:35.703Z,1.40
2023-11-22T16:46:05.560Z,1.50
2023-11-22T16:48:33.964Z,1.40
2023-11-22T16:51:03.732Z,1.30
2023-11-22T16:53:31.966Z,1.30
2023-11-22T16:56:00.117Z,1.30
2023-11-22T16:58:28.361Z,1.30
2023-11-22T17:00:58.177Z,1.30
2023-11-22T17:03:27.258Z,1.30
2023-11-22T17:05:55.690Z,1.30
2023-11-22T17:08:25.492Z,1.30
2023-11-22T17:10:53.782Z,1.30
2023-11-22T17:13:22.151Z,1.30
2023-11-22T17:15:50.305Z,1.30
2023-11-22T17:18:19.873Z,1.30
2023-11-22T17:20:48.152Z,1.30
2023-11-22T17:23:16.671Z,1.20
2023-11-22T17:25:46.283Z,1.20
2023-11-22T17:28:14.726Z,1.20
2023-11-22T17:30:42.887Z,1.20
2023-11-22T17:33:11.112Z,1.30
2023-11-22T17:35:39.445Z,1.30
2023-11-22T17:38:08.311Z,1.30
2023-11-22T17:40:36.526Z,1.30
2023-11-22T17:43:06.124Z,1.30
2023-11-22T17:45:34.994Z,1.30
2023-11-22T17:48:03.474Z,1.30
2023-11-22T17:50:31.836Z,1.30
2023-11-22T17:53:01.347Z,1.30
2023-11-22T17:55:29.838Z,1.30
2023-11-22T17:57:58.083Z,1.30
2023-11-22T18:00:27.685Z,1.30
2023-11-22T18:02:56.022Z,1.30
2023-11-22T18:05:26.149Z,1.30
2023-11-22T18:07:54.446Z,1.30
2023-11-22T18:10:24.443Z,1.30
2023-11-22T18:12:54.080Z,1.30
2023-11-22T18:15:22.782Z,1.40
2023-11-22T18:17:53.847Z,1.40
2023-11-22T18:20:22.324Z,1.40
2023-11-22T18:22:50.464Z,1.40
2023-11-22T18:25:18.658Z,1.40
2023-11-22T18:27:46.899Z,1.40
2023-11-22T18:30:15.583Z,1.40
2023-11-22T18:32:44.368Z,1.40
2023-11-22T18:35:14.798Z,1.40
2023-11-22T18:37:44.137Z,1.40
2023-11-22T18:40:13.332Z,1.40
2023-11-22T18:42:41.821Z,1.40
2023-11-22T18:45:13.427Z,1.40
2023-11-22T18:47:42.228Z,1.40
2023-11-22T18:50:14.417Z,1.40
2023-11-22T18:52:42.708Z,1.50
2023-11-22T18:55:11.927Z,1.40
2023-11-22T18:57:41.645Z,1.40
2023-11-22T19:00:12.209Z,1.40
2023-11-22T19:02:41.860Z,1.40
2023-11-22T19:05:10.894Z,1.40
2023-11-22T19:07:42.733Z,1.30
2023-11-22T19:10:11.861Z,1.40
2023-11-22T19:12:40.064Z,1.40
2023-11-22T19:15:11.997Z,1.30
2023-11-22T19:17:49.241Z,1.30
2023-11-22T19:20:17.948Z,1.40
2023-11-22T19:22:48.395Z,1.40
2023-11-22T19:25:16.964Z,1.40
2023-11-22T19:27:45.444Z,1.40
2023-11-22T19:30:16.892Z,1.40
2023-11-22T19:32:47.003Z,1.40
2023-11-22T19:35:15.423Z,1.40
2023-11-22T19:37:43.794Z,1.40
2023-11-22T19:40:13.878Z,1.40
2023-11-22T19:42:42.098Z,1.40
2023-11-22T19:45:13.127Z,1.40
2023-11-22T19:47:42.537Z,1.40
2023-11-22T19:50:11.353Z,1.30
2023-11-22T19:52:39.627Z,1.30
2023-11-22T19:55:09.219Z,1.20
2023-11-22T19:57:40.060Z,1.30
2023-11-22T20:00:09.742Z,1.30
2023-11-22T20:02:38.315Z,1.30
2023-11-22T20:05:17.093Z,1.30
2023-11-22T20:07:45.451Z,1.30
2023-11-22T20:10:17.051Z,1.40
2023-11-22T20:12:46.975Z,1.30
2023-11-22T20:15:15.345Z,1.40
2023-11-22T20:17:43.598Z,1.40
2023-11-22T20:20:15.429Z,1.40
2023-11-22T20:22:44.315Z,1.40
2023-11-22T20:25:13.374Z,1.50
2023-11-22T20:27:41.670Z,1.50
2023-11-22T20:30:12.536Z,1.50
2023-11-22T20:32:40.889Z,1.50
2023-11-22T20:35:10.194Z,1.50
2023-11-22T20:37:38.759Z,1.50
2023-11-22T20:40:08.526Z,1.50
2023-11-22T20:42:36.980Z,1.50
2023-11-22T20:45:05.928Z,1.40
2023-11-22T20:47:35.996Z,1.40
2023-11-22T20:50:05.712Z,1.40
2023-11-22T20:52:34.432Z,1.40
2023-11-22T20:55:09.318Z,1.30
2023-11-22T20:57:38.732Z,1.30
2023-11-22T21:00:11.321Z,1.30
2023-11-22T21:02:41.669Z,1.30
2023-11-22T21:05:10.836Z,1.20
2023-11-22T21:07:39.375Z,1.30
2023-11-22T21:10:08.587Z,1.30
2023-11-22T21:12:36.908Z,1.30
2023-11-22T21:15:08.302Z,1.20
2023-11-22T21:17:47.087Z,1.20
2023-11-22T21:20:16.631Z,1.20
2023-11-22T21:22:44.867Z,1.20
2023-11-22T21:25:13.313Z,1.20
2023-11-22T21:27:44.355Z,1.20
2023-11-22T21:30:13.768Z,1.20
2023-11-22T21:32:43.664Z,1.20
2023-11-22T21:35:13.658Z,1.20
2023-11-22T21:37:43.132Z,1.10
2023-11-22T21:40:14.209Z,1.10
2023-11-22T21:42:42.731Z,1.10
2023-11-22T21:45:13.076Z,1.10
2023-11-22T21:47:41.778Z,1.10
2023-11-22T21:50:14.056Z,1.10
2023-11-22T21:52:43.728Z,1.10
2023-11-22T21:55:13.080Z,1.10
2023-11-22T21:57:41.388Z,1.00
2023-11-22T22:00:12.281Z,1.00
2023-11-22T22:02:41.595Z,1.00
2023-11-22T22:05:14.100Z,1.00
2023-11-22T22:07:42.315Z,1.10
2023-11-22T22:10:11.347Z,1.10
2023-11-22T22:12:39.790Z,1.10
2023-11-22T22:15:12.141Z,1.10
2023-11-22T22:17:41.280Z,1.10
2023-11-22T22:20:13.013Z,1.10
2023-11-22T22:22:41.774Z,1.10
2023-11-22T22:25:10.591Z,1.10
2023-11-22T22:27:38.821Z,1.10
2023-11-22T22:30:07.948Z,1.10
2023-11-22T22:32:37.023Z,1.10
2023-11-22T22:35:05.892Z,1.10
2023-11-22T22:37:37.122Z,1.10
2023-11-22T22:40:06.093Z,1.10
2023-11-22T22:42:34.252Z,1.10
2023-11-22T22:45:02.603Z,1.10
2023-11-22T22:47:30.890Z,1.00
2023-11-22T22:49:59.504Z,1.10
2023-11-22T22:52:29.095Z,1.10
2023-11-22T22:54:58.802Z,1.10
2023-11-22T22:57:27.197Z,1.10
2023-11-22T22:59:55.408Z,1.10
2023-11-22T23:02:23.881Z,1.10
2023-11-22T23:04:54.291Z,1.00
2023-11-22T23:07:23.576Z,1.10
2023-11-22T23:09:51.815Z,1.10
2023-11-22T23:12:21.369Z,1.00
2023-11-22T23:14:50.318Z,1.10
2023-11-22T23:17:18.739Z,1.10
2023-11-22T23:19:47.659Z,1.10
2023-11-22T23:22:15.933Z,1.10
2023-11-22T23:24:44.234Z,1.00
2023-11-22T23:27:12.564Z,1.10
2023-11-22T23:29:42.854Z,1.10
2023-11-22T23:32:11.783Z,1.00
2023-11-22T23:34:40.871Z,1.10
2023-11-22T23:37:09.697Z,1.00
2023-11-22T23:39:38.012Z,1.00
2023-11-22T23:42:14.048Z,1.00
2023-11-22T23:44:44.514Z,1.00
2023-11-22T23:47:12.895Z,1.00
2023-11-22T23:49:41.163Z,1.00
2023-11-22T23:52:09.496Z,1.00
2023-11-22T23:54:38.280Z,1.00
2023-11-22T23:57:06.853Z,1.00
2023-11-22T23:59:35.935Z,1.00
